Boonville, CA (95415)

2:34 PM PDT on October 01, 2014 (GMT -0700)
Anderson Valley | Change Station
CLOSE
Current Station
Personal Weather Station
Location: Boonville, CA
Elevation: 410 ft
Nearby Weather Stations

Elev 410 ft 39.01 °N, 123.36 °W | Updated 13 minutes ago

Clear
Clear
83.4 °F
Feels Like 81 °F
N
6.0
Wind Variable Wind from West
Gusts 12.0 mph

Today
High -- | Low -- °F
--% Chance of Precip.
Yesterday
High -- | Low -- °F
Precip. -- in
7:09 AM 6:55 PM
Waxing Crescent, 51% visible
Pressure 29.88 in
Visibility 10.0 miles
Clouds Clear
Heat Index 81 °F
Dew Point 41 °F
Humidity 23%
Rainfall 0.00 in
Snow Depth 0 in , 1 in , 0 in
UV 6 out of 12
Pollen 4.10 out of 12
Air Quality Not available.
Flu Activity Not available.
METAR KUKI 012056Z AUTO VRB03KT 10SM CLR 29/01 A2990 RMK AO2 SLP119 6//// T02890011 58019 PWINO PNO $

More Conditions Fewer Conditions

Pressure 29.88 in
Visibility 10.0 miles
Clouds Clear
Heat Index 81 °F
Dew Point 41 °F
Humidity 23%
Rainfall 0.00 in
Snow Depth 0 in , 1 in , 0 in
UV 6 out of 12
Pollen 4.10 out of 12
Air Quality Not available.
Flu Activity Not available.
METAR KUKI 012056Z AUTO VRB03KT 10SM CLR 29/01 A2990 RMK AO2 SLP119 6//// T02890011 58019 PWINO PNO $

More Conditions Fewer Conditions

10-Day Weather Forecast

Almanac

Astronomy

Oct. 01, 2014 Rise Set
Actual Time 7:09 AM PDT 6:55 PM PDT
Civil Twilight 6:42 AM PDT 7:22 PM PDT
Nautical Twilight 6:11 AM PDT 7:53 PM PDT
Astronomical Twilight 5:40 AM PDT 8:24 PM PDT
Moon 2:13 PM PDT No Moon Set
Length of Visible Light 12h 39m
Length of Day
11h 46m
Tomorrow will be 2m 30s shorter.
Waxing Crescent, 51% of the Moon is Illuminated
Today
Waxing Crescent
Oct 8
Full
Oct 15
Last Quarter
Oct 23
New
Oct 30
First Quarter

Today's Extremes

State Highs State Lows

Community

WunderPhotos

Upload Photos

1,758,058 photos uploaded!

WunderBlogs® & News

By Dr. Jeff Masters
Director of Meteorology, Weather Underground
By Kari Strenfel
Meteorologist, Weather Underground
By Christopher C. Burt
Weather Historian, Weather Underground
October 1, 2014
October 1, 2014
October 1, 2014

Nearby

Snow Depth

Station Depth Elevation
Rubicon #2 0 in 7500 ft
Leavitt Lake 1 in 9400 ft
Burnside Lake 0 in 8139 ft
Spratt Creek 0 in 6200 ft
CSS Lab 3 in 6900 ft

Earthquake Activity

City Distance Mag. Time & Date
East Foothills, California 136 miles 2.6 3:34 PM PDT
2014-09-30
American Canyon, California 80 miles 2.5 12:17 AM PDT
2014-09-29
Minimum magnitude displayed is 2.5.

Coastal Water Temperatures

Place Temperature
Arena Cove, CA 55.0 °F
North Spit, CA 59.0 °F
Point Reyes, CA 60.1 °F
San Francisco, CA 64.9 °F
Richmond, CA 66.9 °F

Nearby Weather Stations